Time;durP1;ratioP1;P1;durP2;ratioP2;P2;SDS_P1;SDS_P2;PMS_P1;PMS_P2;Temp;Humidity;BMP_temperature;BMP_pressure;BME280_temperature;BME280_humidity;BME280_pressure;Samples;Min_cycle;Max_cycle;Signal;HPM_P1;HPM_P2
2022/09/23 00:03:46;;;;;;;4.97;2.23;;;9.00;99.90;;;;;;20917596;28;20025;-80
2022/09/23 00:13:49;;;;;;;2.97;2.10;;;9.10;99.90;;;;;;20929867;28;20380;-79
2022/09/23 00:23:50;;;;;;;3.67;1.80;;;8.90;99.90;;;;;;20920923;28;20033;-80
2022/09/23 00:33:56;;;;;;;5.53;1.90;;;8.70;99.90;;;;;;20918339;28;20033;-79
2022/09/23 00:43:59;;;;;;;2.50;1.60;;;8.70;99.90;;;;;;20921569;28;20058;-80
2022/09/23 00:54:01;;;;;;;6.60;2.15;;;8.50;99.90;;;;;;20919783;28;20446;-80
2022/09/23 01:04:02;;;;;;;3.72;1.90;;;8.40;99.90;;;;;;20918599;28;20450;-81
2022/09/23 01:14:09;;;;;;;;;;;8.40;99.90;;;;;;20919663;28;20555;-79
2022/09/23 01:24:31;;;;;;;2.17;1.73;;;8.40;99.90;;;;;;20998452;22;20332;-78
2022/09/23 01:34:58;;;;;;;3.45;2.05;;;8.10;99.90;;;;;;21064361;28;20081;-77
2022/09/23 01:45:11;;;;;;;5.65;3.38;;;8.10;99.90;;;;;;21074549;28;20494;-77
2022/09/23 01:55:17;;;;;;;7.53;3.47;;;8.00;99.90;;;;;;21091851;28;20028;-77
2022/09/23 02:05:28;;;;;;;6.20;3.35;;;7.80;99.90;;;;;;21072800;28;20071;-77
2022/09/23 02:15:35;;;;;;;5.13;3.58;;;7.80;99.90;;;;;;21089760;28;20173;-77
2022/09/23 02:26:04;;;;;;;3.58;1.90;;;7.80;99.90;;;;;;21067234;28;20039;-77
2022/09/23 02:36:14;;;;;;;3.88;2.53;;;7.70;99.90;;;;;;21089194;28;20032;-78
2022/09/23 02:46:16;;;;;;;5.75;2.17;;;7.70;99.90;;;;;;21077726;28;20035;-77
2022/09/23 02:56:19;;;;;;;;;;;7.60;99.90;;;;;;21089431;28;20531;-77
2022/09/23 03:06:26;;;;;;;;;;;7.60;99.90;;;;;;21150812;28;19964;-77
2022/09/23 03:16:46;;;;;;;8.48;3.78;;;7.40;99.90;;;;;;21150183;28;19943;-78
2022/09/23 03:26:48;;;;;;;15.43;3.53;;;7.30;99.90;;;;;;21178288;28;20045;-77
2022/09/23 03:37:13;;;;;;;10.35;3.63;;;7.10;99.90;;;;;;21167799;28;20038;-77
2022/09/23 03:47:15;;;;;;;7.63;3.45;;;7.00;99.90;;;;;;21161771;28;20076;-77
2022/09/23 03:57:16;;;;;;;5.97;3.42;;;6.90;99.90;;;;;;21141157;28;20061;-78
2022/09/23 04:07:18;;;;;;;6.70;3.10;;;6.90;99.90;;;;;;21164312;28;20066;-78
2022/09/23 04:17:18;;;;;;;7.57;3.40;;;6.90;99.90;;;;;;21169519;28;20032;-78
2022/09/23 04:27:19;;;;;;;7.53;3.40;;;6.90;99.90;;;;;;21165085;28;20514;-77
2022/09/23 04:37:20;;;;;;;4.93;3.07;;;6.80;99.90;;;;;;21136782;28;20063;-77
2022/09/23 04:47:21;;;;;;;9.53;4.00;;;6.80;99.90;;;;;;21092125;28;20032;-77
2022/09/23 04:57:23;;;;;;;6.47;3.97;;;6.70;99.90;;;;;;21137525;28;20023;-76
2022/09/23 05:07:24;;;;;;;7.45;4.15;;;6.50;99.90;;;;;;21144362;28;20032;-76
2022/09/23 05:17:25;;;;;;;7.32;3.92;;;6.50;99.90;;;;;;21161995;28;20481;-77
2022/09/23 05:27:26;;;;;;;6.30;4.07;;;6.60;99.90;;;;;;21173778;28;20114;-78
2022/09/23 05:37:27;;;;;;;9.90;4.30;;;6.60;99.90;;;;;;21171171;28;20027;-77
2022/09/23 05:47:28;;;;;;;8.55;4.35;;;6.50;99.90;;;;;;21184498;28;20027;-78
2022/09/23 05:57:29;;;;;;;6.00;4.07;;;6.70;99.90;;;;;;21190806;28;20027;-79
2022/09/23 06:07:30;;;;;;;11.33;4.50;;;7.20;99.90;;;;;;21198471;28;20023;-78
2022/09/23 06:17:31;;;;;;;;;;;7.70;99.90;;;;;;21166245;28;20031;-77
2022/09/23 06:27:31;;;;;;;8.77;4.32;;;8.20;99.90;;;;;;21156168;28;20391;-77
2022/09/23 06:37:32;;;;;;;6.73;4.00;;;8.10;99.90;;;;;;21180858;28;20035;-77
2022/09/23 06:47:33;;;;;;;6.57;4.00;;;8.30;99.90;;;;;;21177413;28;20032;-77
2022/09/23 06:57:34;;;;;;;9.10;3.90;;;8.80;99.90;;;;;;21178419;28;20057;-77
2022/09/23 07:07:36;;;;;;;;;;;8.80;99.90;;;;;;21167727;28;20028;-78
2022/09/23 07:17:40;;;;;;;8.23;3.92;;;8.70;99.90;;;;;;21177778;28;19908;-77
2022/09/23 07:27:40;;;;;;;6.60;3.40;;;8.60;99.90;;;;;;21062187;22;20056;-80
2022/09/23 07:37:41;;;;;;;7.70;3.53;;;9.30;99.90;;;;;;20924530;28;20025;-82
2022/09/23 07:47:42;;;;;;;5.40;3.77;;;10.40;99.90;;;;;;20905801;28;20037;-80
2022/09/23 07:57:43;;;;;;;10.23;3.67;;;11.30;99.90;;;;;;20923359;28;20032;-80
2022/09/23 08:07:44;;;;;;;7.75;3.53;;;11.00;99.90;;;;;;20917201;28;20040;-78
2022/09/23 08:17:45;;;;;;;4.90;4.00;;;11.70;99.90;;;;;;20920036;28;20028;-81
2022/09/23 08:27:46;;;;;;;8.17;4.37;;;12.50;99.90;;;;;;20921279;28;20029;-81
2022/09/23 08:37:47;;;;;;;8.53;4.30;;;13.30;99.90;;;;;;20928742;28;20029;-78
2022/09/23 08:48:15;;;;;;;7.60;5.03;;;14.80;99.90;;;;;;20914055;28;20051;-81
2022/09/23 08:58:47;;;;;;;7.80;5.57;;;15.30;99.90;;;;;;20923239;28;20029;-81
2022/09/23 09:08:59;;;;;;;8.40;5.63;;;15.90;99.90;;;;;;20941407;28;20060;-80
2022/09/23 09:19:01;;;;;;;11.75;5.85;;;16.40;99.90;;;;;;20933587;28;20095;-82
2022/09/23 09:29:09;;;;;;;7.78;4.97;;;17.70;99.90;;;;;;20935896;28;20487;-80
2022/09/23 09:39:12;;;;;;;12.50;5.30;;;18.00;99.90;;;;;;20939579;28;20040;-82
2022/09/23 09:49:27;;;;;;;8.65;5.05;;;17.90;99.90;;;;;;20941574;28;20029;-80
2022/09/23 09:59:28;;;;;;;11.65;5.22;;;18.70;99.90;;;;;;20943884;28;20025;-81
2022/09/23 10:09:34;;;;;;;9.30;4.90;;;19.60;99.90;;;;;;20934045;28;20044;-81
2022/09/23 10:19:43;;;;;;;11.00;5.72;;;20.30;99.90;;;;;;20934235;28;20029;-82
2022/09/23 10:29:47;;;;;;;7.75;5.15;;;19.60;99.90;;;;;;20964118;28;20064;-80
2022/09/23 10:50:28;;;;;;;7.72;4.80;;;21.50;99.90;;;;;;20933849;28;20029;-82
2022/09/23 11:00:35;;;;;;;8.02;4.75;;;22.40;99.90;;;;;;20933705;28;20466;-80
2022/09/23 11:10:50;;;;;;;5.38;3.70;;;23.00;99.90;;;;;;20928260;28;20045;-80
2022/09/23 11:21:19;;;;;;;6.72;3.67;;;23.60;99.90;;;;;;20935851;28;20060;-77
2022/09/23 11:31:51;;;;;;;5.70;3.00;;;22.10;99.90;;;;;;20929782;28;20106;-81
2022/09/23 11:41:55;;;;;;;4.87;2.80;;;21.90;99.90;;;;;;20929836;28;20090;-81
2022/09/23 11:52:19;;;;;;;6.60;2.40;;;20.40;99.90;;;;;;20928272;28;20056;-81
2022/09/23 12:02:27;;;;;;;3.38;1.80;;;21.30;99.90;;;;;;20888585;28;20037;-82
2022/09/23 12:12:52;;;;;;;3.13;1.85;;;21.70;99.90;;;;;;20925215;28;20037;-80
2022/09/23 12:22:59;;;;;;;4.30;2.63;;;21.50;99.90;;;;;;20926007;28;20036;-82
2022/09/23 12:33:23;;;;;;;3.63;2.05;;;21.10;99.90;;;;;;20908521;28;20052;-80
2022/09/23 12:43:30;;;;;;;3.97;2.58;;;21.30;99.90;;;;;;20928379;28;20052;-78
2022/09/23 12:53:33;;;;;;;3.78;2.30;;;21.20;99.90;;;;;;20930309;28;20048;-79
2022/09/23 13:13:58;;;;;;;6.15;2.38;;;21.50;99.90;;;;;;20920310;28;20057;-81
2022/09/23 13:24:18;;;;;;;3.58;2.47;;;21.70;99.90;;;;;;20946839;22;20032;-80
2022/09/23 13:34:23;;;;;;;7.80;2.67;;;21.50;99.90;;;;;;20995069;28;20036;-78
2022/09/23 13:44:24;;;;;;;5.00;2.13;;;21.20;99.90;;;;;;21009274;28;20044;-79
2022/09/23 13:54:48;;;;;;;4.93;2.50;;;21.70;99.90;;;;;;20997111;28;20024;-78
2022/09/23 14:04:49;;;;;;;8.68;2.00;;;21.10;99.90;;;;;;21066233;28;20374;-78
2022/09/23 14:14:51;;;;;;;4.57;2.20;;;20.50;99.90;;;;;;21043850;28;20409;-79
2022/09/23 14:24:54;;;;;;;9.63;2.28;;;20.70;99.90;;;;;;21086994;28;20044;-78
2022/09/23 14:34:58;;;;;;;6.65;2.42;;;21.00;99.90;;;;;;21021625;28;20032;-78
2022/09/23 14:44:59;;;;;;;3.67;2.00;;;21.10;99.90;;;;;;21022900;28;20059;-78
2022/09/23 14:55:00;;;;;;;7.47;2.97;;;20.80;99.90;;;;;;21030336;28;20040;-80
2022/09/23 15:05:07;;;;;;;3.95;1.85;;;20.60;99.90;;;;;;21014565;28;20043;-79
2022/09/23 15:15:12;;;;;;;5.10;2.47;;;20.30;99.90;;;;;;21022932;28;20386;-79
2022/09/23 15:25:33;;;;;;;7.78;1.88;;;20.30;99.90;;;;;;20975658;28;20040;-79
2022/09/23 15:35:35;;;;;;;3.60;1.95;;;20.40;99.90;;;;;;20928178;28;20028;-78
2022/09/23 15:45:42;;;;;;;2.13;1.63;;;20.60;99.90;;;;;;21024300;28;20036;-78
2022/09/23 15:55:44;;;;;;;11.40;4.07;;;20.40;99.90;;;;;;21023824;28;20097;-78
2022/09/23 16:05:47;;;;;;;3.85;2.05;;;20.20;99.90;;;;;;21003478;28;20032;-78
2022/09/23 16:15:48;;;;;;;3.28;1.98;;;19.90;99.90;;;;;;21021251;28;20040;-78
2022/09/23 16:25:49;;;;;;;4.57;2.10;;;19.60;99.90;;;;;;21014071;28;20526;-79
2022/09/23 16:35:50;;;;;;;6.00;1.93;;;19.30;99.90;;;;;;20953289;28;20056;-78
2022/09/23 16:45:51;;;;;;;;;;;18.80;99.90;;;;;;20927076;28;20214;-78
2022/09/23 16:55:52;;;;;;;6.90;2.22;;;18.70;99.90;;;;;;20963566;28;19909;-77
2022/09/23 17:05:53;;;;;;;4.13;2.53;;;17.90;99.90;;;;;;20924004;28;20036;-77
2022/09/23 17:15:55;;;;;;;9.57;3.93;;;17.90;99.90;;;;;;20924297;28;20033;-77
2022/09/23 17:25:56;;;;;;;9.20;4.10;;;17.30;99.90;;;;;;21026785;28;20028;-77
2022/09/23 17:35:58;;;;;;;6.22;3.60;;;17.10;99.90;;;;;;21099956;28;20028;-77
2022/09/23 17:46:05;;;;;;;5.93;4.05;;;16.70;99.90;;;;;;21055906;28;20550;-77
2022/09/23 17:56:25;;;;;;;12.80;4.80;;;16.50;99.90;;;;;;21073740;28;20636;-77
2022/09/23 18:06:32;;;;;;;6.82;3.95;;;15.80;99.90;;;;;;21092103;28;20060;-78
2022/09/23 18:16:38;;;;;;;6.80;4.18;;;15.60;99.90;;;;;;21079344;28;20071;-78
2022/09/23 18:26:40;;;;;;;12.75;4.38;;;15.50;99.90;;;;;;21084855;28;20031;-77
2022/09/23 18:36:42;;;;;;;6.78;3.78;;;15.30;99.90;;;;;;21084143;28;20032;-76
2022/09/23 18:46:43;;;;;;;;;;;15.50;99.90;;;;;;21092421;28;20039;-76
2022/09/23 18:56:45;;;;;;;6.18;3.20;;;15.20;99.90;;;;;;21083446;28;20275;-77
2022/09/23 19:06:46;;;;;;;;;;;14.70;99.90;;;;;;21084292;28;20036;-76
2022/09/23 19:16:47;;;;;;;6.53;3.83;;;14.70;99.90;;;;;;21083548;28;19915;-76
2022/09/23 19:26:49;;;;;;;7.88;4.22;;;14.60;99.90;;;;;;21062568;28;20036;-77
2022/09/23 20:23:56;;;;;;;11.35;5.15;;;13.80;99.90;;;;;;20337026;28;20040;-78
2022/09/23 20:46:43;;;;;;;11.75;4.72;;;13.70;99.90;;;;;;20040716;29;20052;-78
2022/09/23 20:57:11;;;;;;;12.63;5.63;;;13.60;99.90;;;;;;20694479;22;20123;-83
2022/09/23 21:07:12;;;;;;;7.32;4.63;;;13.50;99.90;;;;;;21086025;28;20074;-83
2022/09/23 21:17:12;;;;;;;13.83;5.17;;;13.40;99.90;;;;;;21085436;28;20043;-81
2022/09/23 21:27:13;;;;;;;9.80;4.30;;;13.30;99.90;;;;;;21083085;28;20404;-81
2022/09/23 21:37:14;;;;;;;8.73;4.73;;;13.10;99.90;;;;;;21080098;28;20079;-83
2022/09/23 21:47:15;;;;;;;6.87;4.93;;;13.10;99.90;;;;;;21081057;28;20051;-82
2022/09/23 21:57:16;;;;;;;9.17;4.90;;;12.80;99.90;;;;;;21081240;28;20054;-81
2022/09/23 22:07:18;;;;;;;8.07;4.40;;;12.60;99.90;;;;;;21077489;28;20052;-79
2022/09/23 22:17:20;;;;;;;8.35;5.15;;;12.40;99.90;;;;;;21129737;28;20042;-81
2022/09/23 22:27:21;;;;;;;11.93;5.53;;;12.50;99.90;;;;;;21131937;28;20047;-83
2022/09/23 22:37:29;;;;;;;11.53;5.63;;;12.20;99.90;;;;;;21122142;28;20040;-82
2022/09/23 22:47:36;;;;;;;10.23;5.00;;;12.30;99.90;;;;;;21103917;28;20060;-81
2022/09/23 22:57:37;;;;;;;8.38;4.60;;;12.60;99.90;;;;;;21100948;28;20495;-82
2022/09/23 23:07:38;;;;;;;11.53;6.47;;;12.50;99.90;;;;;;21075204;28;20133;-81
2022/09/23 23:17:40;;;;;;;9.63;4.57;;;12.40;99.90;;;;;;21089047;28;20036;-83
2022/09/23 23:27:41;;;;;;;8.38;4.72;;;12.50;99.90;;;;;;21094246;28;20046;-81
2022/09/23 23:37:43;;;;;;;7.75;5.05;;;12.50;99.90;;;;;;21093128;28;20134;-80
2022/09/23 23:47:44;;;;;;;12.33;5.37;;;12.40;99.90;;;;;;21090212;28;20039;-82
2022/09/23 23:57:45;;;;;;;6.68;5.00;;;12.70;99.90;;;;;;21086806;28;20066;-84
